Impacts TAF Board INFO
FOR SITUATIONAL AWARENESS. NOT TO BE USED FOR FLIGHT PLANNING PURPOSES.
IDs:

KTPA - Tampa Intl Arpt, FL, US

Issued at 2058 UTC 17 Dec 2017
Updated at 2112 UTC 17 Dec 2017
Potential Impact None Slight Moderate High
Time2053Z 17/22Z 17/23Z 18/00Z 18/01Z 18/02Z 18/03Z 18/04Z 18/05Z 18/06Z 18/07Z 18/08Z 18/09Z 18/10Z>>
Type OBS PRVL PRVL PRVL PRVL PRVL PRVL PRVL PRVL PRVL PRVL PRVL PRVL PRVL
VIS 10 >6 >6 >6 >6 >6 >6 >6 >6 >6 6 6 6 6
CIG 250 -- -- -- -- -- -- -- -- -- -- -- -- --
Cover BKN SCT SCT SCT SCT SCT SCT SCT SCT SCT SCT SCT SCT SCT
FltCat VFR VFR VFR VFR VFR VFR VFR VFR VFR VFR VFR VFR VFR VFR
WX -- -- -- -- -- -- -- -- -- -- BR BR BR BR
WDir 230 230 230 VRB VRB VRB VRB VRB VRB VRB VRB VRB VRB VRB
WSpd 4 5 5 3 3 3 3 3 3 3 3 3 3 3
WGst -- -- -- -- -- -- -- -- -- -- -- -- -- --

Raw TAF
KTPA 172058Z 1721/1824 23005KT P6SM FEW035 SCT250
  FM180000 VRB03KT P6SM SCT250
  FM180700 VRB03KT 6SM BR SCT010 SCT250
  FM181400 18006KT P6SM SCT030 SCT250
  FM182100 25006KT P6SM FEW040 SCT250


Raw METAR
KTPA 172053Z 23004KT 10SM FEW040 BKN250 26/16 A3020 RMK AO2 SLP225 T02560161 55007
KTPA 171953Z 24006KT 10SM FEW040 OVC350 26/17 A3019 RMK AO2 SLP223 T02610167
KTPA 171853Z 25006KT 10SM FEW037 OVC350 25/16 A3020 RMK AO2 SLP225 T02500161

METAR Board
Radar Display
Forecast Discussion

FOR SITUATIONAL AWARENESS. NOT TO BE USED FOR FLIGHT PLANNING PURPOSES.